Litchfield, MN

11:30 AM CDT on September 22, 2017 (GMT -0500)
Litchfield Municipal

Weather History for KLJF - October, 2014

Change the Weather History Date:

Sunday, October 5, 2014

  Actual Average Record
Temperature  
Mean Temperature 42 °F -  
Max Temperature 48 °F 66 °F 88 °F (1963)
Min Temperature 35 °F 41 °F 21 °F (1952)
Degree Days  
Heating Degree Days 24    
Moisture  
Dew Point 36 °F    
Average Humidity 78    
Maximum Humidity 100    
Minimum Humidity 58    
Precipitation  
Precipitation 0.00 in - - ()
Sea Level Pressure  
Sea Level Pressure 29.62 in    
Wind  
Wind Speed 5 mph (West)    
Max Wind Speed 15 mph    
Max Gust Speed 21 mph    
Visibility 10 miles    
Events      
Averages and records for this station are not official NWS values.
T = Trace of Precipitation, MM = Missing Value Source: NWS Daily Summary

Daily Weather History Graph

Daily Weather History Graph

Search for Another Location

Airport or City:

Trip Planner

Search our weather history database for the weather conditions in past years. The results will help you decide how hot, cold, wet, or windy it might be!

Date:

Astronomy

Oct. 05, 2014 Rise Set
Actual Time 7:21 AM CDT 6:50 PM CDT
Civil Twilight 6:51 AM CDT 7:20 PM CDT
Nautical Twilight 6:17 AM CDT 7:54 PM CDT
Astronomical Twilight 5:43 AM CDT 8:28 PM CDT
Moon 5:15 PM CDT (10/5) 3:50 AM CDT (10/5)
Length of Visible Light 12h 28m
Length of Day
11h 29m
Waxing Gibbous, 89% of the Moon is Illuminated
Oct 5
Waxing Gibbous
Oct 8
Full
Oct 15
Last Quarter
Oct 23
New
Oct 30
First Quarter

Hourly Weather History & Observations

Time (CDT) Temp. Windchill Dew Point Humidity Pressure Visibility Wind Dir Wind Speed Gust Speed Precip Events Conditions
12:13 AM 37.4 °F - 30.2 °F 75% 29.70 in 10.0 mi Calm Calm - N/A   Clear
12:33 AM 37.4 °F 34.9 °F 30.2 °F 75% 29.70 in 10.0 mi West 3.5 mph - N/A   Clear
12:52 AM 35.6 °F - 30.2 °F 81% 29.70 in 10.0 mi Calm Calm - N/A   Clear
1:13 AM 35.6 °F 32.8 °F 30.2 °F 81% 29.69 in 10.0 mi WSW 3.5 mph - N/A   Clear
1:33 AM 35.6 °F 32.8 °F 30.2 °F 81% 29.68 in 10.0 mi West 3.5 mph - N/A   Clear
1:52 AM 35.6 °F - 32.0 °F 87% 29.68 in 10.0 mi Calm Calm - N/A   Clear
2:13 AM 35.6 °F 32.8 °F 32.0 °F 87% 29.68 in 10.0 mi WSW 3.5 mph - N/A   Clear
2:32 AM 35.6 °F 32.8 °F 32.0 °F 87% 29.68 in 10.0 mi WSW 3.5 mph - N/A   Clear
2:53 AM 35.6 °F 32.8 °F 32.0 °F 87% 29.67 in 10.0 mi WSW 3.5 mph - N/A   Scattered Clouds
3:12 AM 35.6 °F 32.8 °F 30.2 °F 81% 29.66 in 10.0 mi West 3.5 mph - N/A   Overcast
3:33 AM 35.6 °F - 32.0 °F 87% 29.65 in 10.0 mi Calm Calm - N/A   Overcast
3:52 AM 35.6 °F 32.8 °F 32.0 °F 87% 29.65 in 10.0 mi WSW 3.5 mph - N/A   Mostly Cloudy
4:13 AM 35.6 °F - 32.0 °F 87% 29.66 in 10.0 mi Calm Calm - N/A   Mostly Cloudy
4:33 AM 35.6 °F - 33.8 °F 93% 29.65 in 10.0 mi Calm Calm - N/A   Overcast
4:52 AM 35.6 °F 32.8 °F 33.8 °F 93% 29.65 in 10.0 mi WSW 3.5 mph - N/A   Overcast
5:13 AM 35.6 °F - 33.8 °F 93% 29.65 in 10.0 mi Calm Calm - N/A   Mostly Cloudy
5:33 AM 37.4 °F - 33.8 °F 87% 29.65 in 10.0 mi Calm Calm - N/A   Overcast
5:52 AM 37.4 °F 34.9 °F 33.8 °F 87% 29.65 in 10.0 mi West 3.5 mph - N/A   Mostly Cloudy
6:13 AM 37.4 °F 34.9 °F 33.8 °F 87% 29.65 in 10.0 mi WSW 3.5 mph - N/A   Scattered Clouds
6:33 AM 37.4 °F - 33.8 °F 87% 29.64 in 10.0 mi Calm Calm - N/A   Mostly Cloudy
6:52 AM 35.6 °F 32.8 °F 33.8 °F 93% 29.64 in 10.0 mi WSW 3.5 mph - N/A   Mostly Cloudy
7:13 AM 37.4 °F 34.9 °F 33.8 °F 87% 29.64 in 10.0 mi West 3.5 mph - N/A   Overcast
7:33 AM 37.4 °F 33.8 °F 33.8 °F 87% 29.64 in 10.0 mi West 4.6 mph - N/A   Overcast
7:52 AM 39.2 °F 35.0 °F 33.8 °F 81% 29.64 in 10.0 mi West 5.8 mph - N/A   Overcast
8:13 AM 39.2 °F 34.2 °F 35.6 °F 87% 29.64 in 10.0 mi West 6.9 mph - N/A   Overcast
8:32 AM 39.2 °F 33.6 °F 35.6 °F 87% 29.64 in 10.0 mi West 8.1 mph - N/A   Overcast
8:53 AM 39.2 °F 34.2 °F 35.6 °F 87% 29.64 in 10.0 mi West 6.9 mph - N/A   Overcast
9:13 AM 41.0 °F 36.4 °F 37.4 °F 87% 29.64 in 10.0 mi West 6.9 mph - N/A   Mostly Cloudy
9:32 AM 42.8 °F 38.6 °F 37.4 °F 81% 29.64 in 10.0 mi WNW 6.9 mph - N/A   Scattered Clouds
9:53 AM 42.8 °F 37.5 °F 37.4 °F 81% 29.63 in 10.0 mi WNW 9.2 mph 16.1 mph N/A   Mostly Cloudy
10:13 AM 44.6 °F 39.7 °F 37.4 °F 76% 29.63 in 10.0 mi WNW 9.2 mph - N/A   Mostly Cloudy
10:32 AM 44.6 °F 39.7 °F 37.4 °F 76% 29.63 in 10.0 mi WNW 9.2 mph - N/A   Mostly Cloudy
10:53 AM 44.6 °F 39.7 °F 37.4 °F 76% 29.63 in 10.0 mi WNW 9.2 mph - N/A   Mostly Cloudy
11:13 AM 44.6 °F 39.7 °F 37.4 °F 76% 29.62 in 10.0 mi West 9.2 mph - N/A   Overcast
11:53 AM 46.4 °F 40.7 °F 35.6 °F 66% 29.61 in 10.0 mi West 12.7 mph 18.4 mph N/A   Overcast
12:13 PM 46.4 °F 40.7 °F 35.6 °F 66% 29.61 in 10.0 mi WNW 12.7 mph 19.6 mph N/A   Overcast
12:33 PM 48.2 °F - 35.6 °F 62% 29.60 in 10.0 mi West 15.0 mph - N/A   Overcast
12:52 PM 48.2 °F - 35.6 °F 62% 29.60 in 10.0 mi West 13.8 mph 19.6 mph N/A   Mostly Cloudy
1:13 PM 48.2 °F - 35.6 °F 62% 29.60 in 10.0 mi West 10.4 mph 18.4 mph N/A   Overcast
1:33 PM 46.4 °F 40.4 °F 33.8 °F 62% 29.60 in 10.0 mi WNW 13.8 mph 18.4 mph N/A   Overcast
1:52 PM 48.2 °F - 33.8 °F 58% 29.59 in 10.0 mi WNW 12.7 mph 20.7 mph N/A   Overcast
2:13 PM 48.2 °F - 33.8 °F 58% 29.59 in 10.0 mi West 13.8 mph 19.6 mph N/A   Overcast
2:33 PM 48.2 °F - 33.8 °F 58% 29.58 in 10.0 mi West 11.5 mph 19.6 mph N/A   Overcast
2:52 PM 48.2 °F - 35.6 °F 62% 29.58 in 10.0 mi West 11.5 mph - N/A   Overcast
3:13 PM 48.2 °F - 35.6 °F 62% 29.58 in 10.0 mi West 9.2 mph 19.6 mph N/A   Overcast
3:33 PM 48.2 °F - 35.6 °F 62% 29.58 in 10.0 mi West 12.7 mph 17.3 mph N/A   Overcast
3:52 PM 48.2 °F - 35.6 °F 62% 29.58 in 10.0 mi West 10.4 mph 17.3 mph N/A   Overcast
4:13 PM 48.2 °F - 35.6 °F 62% 29.58 in 10.0 mi West 12.7 mph 18.4 mph N/A   Overcast
4:33 PM 48.2 °F - 35.6 °F 62% 29.58 in 10.0 mi WNW 15.0 mph 19.6 mph N/A   Overcast
4:52 PM 48.2 °F - 35.6 °F 62% 29.58 in 10.0 mi West 11.5 mph 16.1 mph N/A   Overcast
5:13 PM 48.2 °F - 35.6 °F 62% 29.58 in 10.0 mi West 12.7 mph 19.6 mph N/A   Overcast
5:33 PM 48.2 °F - 35.6 °F 62% 29.58 in 10.0 mi WNW 10.4 mph 17.3 mph N/A   Overcast
5:52 PM 48.2 °F - 37.4 °F 66% 29.58 in 10.0 mi West 6.9 mph - N/A   Overcast
6:13 PM 48.2 °F - 37.4 °F 66% 29.57 in 10.0 mi West 9.2 mph - N/A   Overcast
6:33 PM 48.2 °F - 37.4 °F 66% 29.57 in 10.0 mi West 6.9 mph - N/A   Overcast
6:52 PM 48.2 °F - 37.4 °F 66% 29.57 in 10.0 mi West 9.2 mph - N/A   Overcast
7:13 PM 46.4 °F 42.9 °F 37.4 °F 71% 29.57 in 10.0 mi West 6.9 mph - N/A   Mostly Cloudy
7:33 PM 46.4 °F 42.4 °F 37.4 °F 71% 29.57 in 10.0 mi West 8.1 mph - N/A   Overcast
7:52 PM 46.4 °F 43.5 °F 39.2 °F 76% 29.57 in 10.0 mi West 5.8 mph - N/A   Overcast
8:13 PM 46.4 °F 43.5 °F 39.2 °F 76% 29.57 in 10.0 mi West 5.8 mph - N/A   Mostly Cloudy
8:33 PM 46.4 °F 43.5 °F 39.2 °F 76% 29.57 in 10.0 mi West 5.8 mph - N/A   Scattered Clouds
8:52 PM 44.6 °F 41.4 °F 39.2 °F 81% 29.57 in 10.0 mi West 5.8 mph - N/A   Clear
9:13 PM 44.6 °F 39.7 °F 41.0 °F 87% 29.58 in 10.0 mi West 9.2 mph - N/A   Clear
9:32 PM 44.6 °F 40.7 °F 41.0 °F 87% 29.58 in 10.0 mi West 6.9 mph - N/A   Clear
9:53 PM 44.6 °F 41.4 °F 41.0 °F 87% 29.57 in 10.0 mi West 5.8 mph - N/A   Clear
10:13 PM 42.8 °F 40.1 °F 41.0 °F 93% 29.57 in 10.0 mi West 4.6 mph - N/A   Clear
10:32 PM 42.8 °F 39.3 °F 41.0 °F 93% 29.57 in 10.0 mi West 5.8 mph - N/A   Clear
10:53 PM 42.8 °F 40.1 °F 41.0 °F 93% 29.57 in 10.0 mi West 4.6 mph - N/A   Clear
11:13 PM 42.8 °F 41.1 °F 42.8 °F 100% 29.57 in 10.0 mi West 3.5 mph - N/A   Clear
11:33 PM 42.8 °F 40.1 °F 41.0 °F 93% 29.57 in 10.0 mi West 4.6 mph - N/A   Clear
11:52 PM 42.8 °F 39.3 °F 41.0 °F 93% 29.57 in 10.0 mi West 5.8 mph - N/A   Clear